createdAt,value
2023-04-16T00:01:39.137Z,23.40
2023-04-16T00:04:06.175Z,23.43
2023-04-16T00:06:33.319Z,25.07
2023-04-16T00:09:00.024Z,24.23
2023-04-16T00:11:26.730Z,23.00
2023-04-16T00:13:53.419Z,23.93
2023-04-16T00:16:20.279Z,24.13
2023-04-16T00:18:47.620Z,25.33
2023-04-16T00:21:14.312Z,24.53
2023-04-16T00:23:40.999Z,23.47
2023-04-16T00:26:09.264Z,25.77
2023-04-16T00:28:36.378Z,25.63
2023-04-16T00:31:03.082Z,25.27
2023-04-16T00:33:29.753Z,24.87
2023-04-16T00:35:57.106Z,26.03
2023-04-16T00:38:23.798Z,26.40
2023-04-16T00:40:50.614Z,24.00
2023-04-16T00:43:21.870Z,23.43
2023-04-16T00:45:48.816Z,24.97
2023-04-16T00:48:15.731Z,25.37
2023-04-16T00:50:42.723Z,25.23
2023-04-16T00:53:10.121Z,24.67
2023-04-16T00:55:37.095Z,27.30
2023-04-16T00:58:03.928Z,25.43
2023-04-16T01:00:30.548Z,27.43
2023-04-16T01:02:59.374Z,25.57
2023-04-16T01:05:26.469Z,24.83
2023-04-16T01:07:53.124Z,26.87
2023-04-16T01:10:20.626Z,25.57
2023-04-16T01:12:47.304Z,28.27
2023-04-16T01:15:14.283Z,25.73
2023-04-16T01:17:41.069Z,26.40
2023-04-16T01:20:08.428Z,27.13
2023-04-16T01:22:35.708Z,28.40
2023-04-16T01:25:02.506Z,29.17
2023-04-16T01:27:29.094Z,26.97
2023-04-16T01:29:56.101Z,27.40
2023-04-16T01:32:22.867Z,27.23
2023-04-16T01:34:49.606Z,27.20
2023-04-16T01:37:17.955Z,28.60
2023-04-16T01:39:45.227Z,28.47
2023-04-16T01:42:11.825Z,30.17
2023-04-16T01:44:38.503Z,27.83
2023-04-16T01:47:05.181Z,30.40
2023-04-16T01:49:33.078Z,29.43
2023-04-16T01:51:59.996Z,28.27
2023-04-16T01:54:26.659Z,27.83
2023-04-16T01:56:53.947Z,29.03
2023-04-16T01:59:20.561Z,28.97
2023-04-16T02:01:47.319Z,29.00
2023-04-16T02:04:14.149Z,29.17
2023-04-16T02:06:41.118Z,30.50
2023-04-16T02:09:08.196Z,29.07
2023-04-16T02:11:35.171Z,29.20
2023-04-16T02:14:02.535Z,28.43
2023-04-16T02:16:29.265Z,27.97
2023-04-16T02:18:55.968Z,30.53
2023-04-16T02:21:22.665Z,28.77
2023-04-16T02:23:50.889Z,29.43
2023-04-16T02:26:17.578Z,28.37
2023-04-16T02:28:44.310Z,28.30
2023-04-16T02:31:11.597Z,27.43
2023-04-16T02:33:38.250Z,26.57
2023-04-16T02:36:05.564Z,27.50
2023-04-16T02:38:32.204Z,27.63
2023-04-16T02:40:58.831Z,29.10
2023-04-16T02:43:28.094Z,28.67
2023-04-16T02:45:54.762Z,29.43
2023-04-16T02:48:22.099Z,28.10
2023-04-16T02:50:48.713Z,28.43
2023-04-16T02:53:15.351Z,28.17
2023-04-16T02:55:42.098Z,27.67
2023-04-16T02:58:08.743Z,28.40
2023-04-16T03:00:35.445Z,28.30
2023-04-16T03:03:02.365Z,29.33
2023-04-16T03:05:29.764Z,30.10
2023-04-16T03:07:56.695Z,28.27
2023-04-16T03:10:23.707Z,28.70
2023-04-16T03:12:50.346Z,31.63
2023-04-16T03:15:17.131Z,30.77
2023-04-16T03:17:43.954Z,31.40
2023-04-16T03:20:11.173Z,34.03
2023-04-16T03:22:38.706Z,36.73
2023-04-16T03:25:06.285Z,35.13
2023-04-16T03:27:33.161Z,35.70
2023-04-16T03:30:00.056Z,35.63
2023-04-16T03:32:26.886Z,35.83
2023-04-16T03:34:53.670Z,36.17
2023-04-16T03:37:20.370Z,36.17
2023-04-16T03:39:47.666Z,34.87
2023-04-16T03:42:14.440Z,37.03
2023-04-16T03:44:41.158Z,36.37
2023-04-16T03:47:07.849Z,37.10
2023-04-16T03:49:34.463Z,36.83
2023-04-16T03:52:01.211Z,36.07
2023-04-16T03:54:27.946Z,35.97
2023-04-16T03:56:56.344Z,36.50
2023-04-16T03:59:23.057Z,36.67
2023-04-16T04:01:50.136Z,36.33
2023-04-16T04:04:16.929Z,37.70
2023-04-16T04:06:45.539Z,36.47
2023-04-16T04:09:12.253Z,36.67
2023-04-16T04:11:38.933Z,35.53
2023-04-16T04:14:06.300Z,37.27
2023-04-16T04:16:33.009Z,38.07
2023-04-16T04:18:59.873Z,34.10
2023-04-16T04:21:27.634Z,36.27
2023-04-16T04:23:56.075Z,37.60
2023-04-16T04:26:22.964Z,35.97
2023-04-16T04:28:49.919Z,36.53
2023-04-16T04:31:17.311Z,36.83
2023-04-16T04:33:44.030Z,35.47
2023-04-16T04:36:10.929Z,35.97
2023-04-16T04:38:37.520Z,34.30
2023-04-16T04:41:04.266Z,35.77
2023-04-16T04:43:30.997Z,36.43
2023-04-16T04:45:57.634Z,35.60
2023-04-16T04:48:25.967Z,33.97
2023-04-16T04:50:53.101Z,36.80
2023-04-16T04:53:20.003Z,35.63
2023-04-16T04:55:48.084Z,35.43
2023-04-16T04:58:17.463Z,33.73
2023-04-16T05:00:46.924Z,36.13
2023-04-16T05:03:20.038Z,33.60
2023-04-16T05:05:47.802Z,35.20
2023-04-16T05:08:14.478Z,34.50
2023-04-16T05:10:41.185Z,35.87
2023-04-16T05:13:07.900Z,36.53
2023-04-16T05:15:34.700Z,37.10
2023-04-16T05:18:01.465Z,37.70
2023-04-16T05:20:28.239Z,36.13
2023-04-16T05:22:55.755Z,35.40
2023-04-16T05:25:22.496Z,35.13
2023-04-16T05:27:49.224Z,35.97
2023-04-16T05:30:18.849Z,34.87
2023-04-16T05:32:45.570Z,35.20
2023-04-16T05:35:12.211Z,35.80
2023-04-16T05:37:38.901Z,33.57
2023-04-16T05:40:12.967Z,33.93
2023-04-16T05:42:39.568Z,34.17
2023-04-16T05:45:07.265Z,32.57
2023-04-16T05:47:33.991Z,33.43
2023-04-16T05:50:00.784Z,32.13
2023-04-16T05:52:27.369Z,32.10
2023-04-16T05:54:54.424Z,31.97
2023-04-16T05:57:21.824Z,32.23
2023-04-16T05:59:48.450Z,32.67
2023-04-16T06:02:15.399Z,29.80
2023-04-16T06:04:42.080Z,29.67
2023-04-16T06:07:08.682Z,30.43
2023-04-16T06:09:35.465Z,31.23
2023-04-16T06:12:16.193Z,31.17
2023-04-16T06:14:43.498Z,30.47
2023-04-16T06:17:10.166Z,29.67
2023-04-16T06:19:36.761Z,28.97
2023-04-16T06:22:05.654Z,28.47
2023-04-16T06:24:32.309Z,31.67
2023-04-16T06:26:59.044Z,29.53
2023-04-16T06:29:37.005Z,27.07
2023-04-16T06:32:08.329Z,28.43
2023-04-16T06:34:35.114Z,28.87
2023-04-16T06:37:01.759Z,29.70
2023-04-16T06:39:28.378Z,30.80
2023-04-16T06:41:55.303Z,28.27
2023-04-16T06:44:22.001Z,28.63
2023-04-16T06:46:48.749Z,28.90
2023-04-16T06:49:16.349Z,27.90
2023-04-16T06:51:43.109Z,30.93
2023-04-16T06:54:10.108Z,27.40
2023-04-16T06:56:36.767Z,27.43
2023-04-16T06:59:03.581Z,27.23
2023-04-16T07:01:30.908Z,28.13
2023-04-16T07:03:57.885Z,27.73
2023-04-16T07:06:26.478Z,27.53
2023-04-16T07:08:53.157Z,28.90
2023-04-16T07:11:20.268Z,28.40
2023-04-16T07:13:50.448Z,27.70
2023-04-16T07:16:17.816Z,28.70
2023-04-16T07:18:44.517Z,29.07
2023-04-16T07:21:13.937Z,27.63
2023-04-16T07:23:41.723Z,25.93
2023-04-16T07:26:08.383Z,27.30
2023-04-16T07:28:35.158Z,25.73
2023-04-16T07:31:02.086Z,24.87
2023-04-16T07:33:28.719Z,25.50
2023-04-16T07:35:55.330Z,26.10
2023-04-16T07:38:22.003Z,24.83
2023-04-16T07:40:49.306Z,26.00
2023-04-16T07:43:16.014Z,24.10
2023-04-16T07:45:42.638Z,23.10
2023-04-16T07:48:09.327Z,22.33
2023-04-16T07:50:36.510Z,25.10
2023-04-16T07:53:03.301Z,23.47
2023-04-16T07:55:32.718Z,23.97
2023-04-16T07:58:00.809Z,22.97
2023-04-16T08:00:27.556Z,22.90
2023-04-16T08:02:54.566Z,23.27
2023-04-16T08:05:21.375Z,23.53
2023-04-16T08:07:48.135Z,23.13
2023-04-16T08:10:15.052Z,23.60
2023-04-16T08:12:41.788Z,23.80
2023-04-16T08:15:10.158Z,24.43
2023-04-16T08:17:37.171Z,24.17
2023-04-16T08:20:04.727Z,23.77
2023-04-16T08:22:32.704Z,23.13
2023-04-16T08:24:59.442Z,25.00
2023-04-16T08:27:26.165Z,24.30
2023-04-16T08:29:52.830Z,23.40
2023-04-16T08:32:20.266Z,25.00
2023-04-16T08:34:47.060Z,22.10
2023-04-16T08:37:13.893Z,23.30
2023-04-16T08:39:40.638Z,22.93
2023-04-16T08:42:16.768Z,21.63
2023-04-16T08:44:49.104Z,23.03
2023-04-16T08:47:16.456Z,23.50
2023-04-16T08:49:58.334Z,21.43
2023-04-16T08:52:30.056Z,24.47
2023-04-16T08:55:03.554Z,25.33
2023-04-16T08:57:36.887Z,25.10
2023-04-16T09:00:05.940Z,25.67
2023-04-16T09:02:33.083Z,27.37
2023-04-16T09:05:03.137Z,25.70
2023-04-16T09:07:30.811Z,24.83
2023-04-16T09:09:59.203Z,23.70
2023-04-16T09:12:26.371Z,24.83
2023-04-16T09:14:53.473Z,25.17
2023-04-16T09:17:20.439Z,25.57
2023-04-16T09:19:47.316Z,24.80
2023-04-16T09:22:16.428Z,24.10
2023-04-16T09:24:43.053Z,23.93
2023-04-16T09:27:10.395Z,23.70
2023-04-16T09:29:39.267Z,20.43
2023-04-16T09:32:07.758Z,21.60
2023-04-16T09:34:35.781Z,20.57
2023-04-16T09:37:16.243Z,21.23
2023-04-16T09:39:43.113Z,18.47
2023-04-16T09:42:10.090Z,19.47
2023-04-16T09:44:37.264Z,18.53
2023-04-16T09:47:07.480Z,20.27
2023-04-16T09:49:34.794Z,19.50
2023-04-16T09:52:01.964Z,18.77
2023-04-16T09:54:29.656Z,21.93
2023-04-16T09:56:57.633Z,20.47
2023-04-16T09:59:24.816Z,19.87
2023-04-16T10:01:52.839Z,22.03
2023-04-16T10:04:19.845Z,21.73
2023-04-16T10:07:03.837Z,22.63
2023-04-16T10:09:33.038Z,22.97
2023-04-16T10:12:00.301Z,21.57
2023-04-16T10:14:26.963Z,22.83
2023-04-16T10:16:55.388Z,22.70
2023-04-16T10:19:22.348Z,22.00
2023-04-16T10:21:49.262Z,24.03
2023-04-16T10:24:18.494Z,24.90
2023-04-16T10:26:51.836Z,26.23
2023-04-16T10:29:20.262Z,25.77
2023-04-16T10:31:48.378Z,24.77
2023-04-16T10:34:17.616Z,23.63
2023-04-16T10:36:50.295Z,25.83
2023-04-16T10:39:20.491Z,23.43
2023-04-16T10:41:49.024Z,23.47
2023-04-16T10:44:18.003Z,21.00
2023-04-16T10:46:49.282Z,22.27
2023-04-16T10:49:18.462Z,25.27
2023-04-16T10:52:08.383Z,25.33
2023-04-16T10:54:37.092Z,23.70
2023-04-16T10:57:06.113Z,25.00
2023-04-16T10:59:34.507Z,23.63
2023-04-16T11:02:09.052Z,22.13
2023-04-16T11:04:37.816Z,23.20
2023-04-16T11:07:13.707Z,22.57
2023-04-16T11:09:55.552Z,24.50
2023-04-16T11:12:26.759Z,22.47
2023-04-16T11:14:58.039Z,21.87
2023-04-16T11:17:28.863Z,21.87
2023-04-16T11:19:56.351Z,21.47
2023-04-16T11:22:23.861Z,21.63
2023-04-16T11:24:55.602Z,19.00
2023-04-16T11:27:24.389Z,19.57
2023-04-16T11:29:59.219Z,19.50
2023-04-16T11:32:26.826Z,18.53
2023-04-16T11:34:54.213Z,19.60
2023-04-16T11:37:22.740Z,20.00
2023-04-16T11:39:51.710Z,17.43
2023-04-16T11:42:22.862Z,19.43
2023-04-16T11:44:54.091Z,19.23
2023-04-16T11:47:23.475Z,18.10
2023-04-16T11:49:51.557Z,17.73
2023-04-16T11:52:30.101Z,17.70
2023-04-16T11:54:58.145Z,18.73
2023-04-16T11:57:28.436Z,17.40
2023-04-16T12:00:04.048Z,18.33
2023-04-16T12:02:37.450Z,17.30
2023-04-16T12:05:06.233Z,17.43
2023-04-16T12:07:44.410Z,17.57
2023-04-16T12:10:11.910Z,18.70
2023-04-16T12:12:40.253Z,17.90
2023-04-16T12:15:09.079Z,19.27
2023-04-16T12:17:38.046Z,17.90
2023-04-16T12:20:09.661Z,18.67
2023-04-16T12:22:38.672Z,18.87
2023-04-16T12:25:07.409Z,18.87
2023-04-16T12:27:48.010Z,18.23
2023-04-16T12:30:17.101Z,19.03
2023-04-16T12:32:45.988Z,16.90
2023-04-16T12:35:13.562Z,16.70
2023-04-16T12:37:40.549Z,17.50
2023-04-16T12:40:08.761Z,16.73
2023-04-16T12:42:35.562Z,17.90
2023-04-16T12:45:03.860Z,17.00
2023-04-16T12:47:31.036Z,16.43
2023-04-16T12:49:58.326Z,17.00
2023-04-16T12:52:27.308Z,18.20
2023-04-16T12:54:54.165Z,18.37
2023-04-16T12:57:20.868Z,17.53
2023-04-16T12:59:47.608Z,15.57
2023-04-16T13:02:15.069Z,14.37
2023-04-16T13:04:42.126Z,14.17
2023-04-16T13:07:08.989Z,13.77
2023-04-16T13:09:37.748Z,14.27
2023-04-16T13:12:06.809Z,13.83
2023-04-16T13:14:33.594Z,13.50
2023-04-16T13:17:00.514Z,14.10
2023-04-16T13:19:27.824Z,14.00
2023-04-16T13:21:54.503Z,14.40
2023-04-16T13:24:21.174Z,13.90
2023-04-16T13:26:48.060Z,15.17
2023-04-16T13:29:14.808Z,13.57
2023-04-16T13:31:41.672Z,14.30
2023-04-16T13:34:08.416Z,13.33
2023-04-16T13:36:35.859Z,13.73
2023-04-16T13:39:03.984Z,13.23
2023-04-16T13:41:31.213Z,12.97
2023-04-16T13:43:57.942Z,14.60
2023-04-16T13:46:24.912Z,13.63
2023-04-16T13:48:51.610Z,13.30
2023-04-16T13:51:18.495Z,13.77
2023-04-16T13:53:45.857Z,12.90
2023-04-16T13:56:12.579Z,13.33
2023-04-16T13:58:40.098Z,13.37
2023-04-16T14:01:06.961Z,13.27
2023-04-16T14:03:35.773Z,13.13
2023-04-16T14:06:02.867Z,13.57
2023-04-16T14:08:29.845Z,14.77
2023-04-16T14:10:57.843Z,12.93
2023-04-16T14:13:24.893Z,13.90
2023-04-16T14:15:53.611Z,13.77
2023-04-16T14:18:20.648Z,14.53
2023-04-16T14:20:47.406Z,12.83
2023-04-16T14:23:14.227Z,13.27
2023-04-16T14:25:40.880Z,13.93
2023-04-16T14:28:11.927Z,12.40
2023-04-16T14:30:39.857Z,12.57
2023-04-16T14:33:06.646Z,14.40
2023-04-16T14:35:33.514Z,11.37
2023-04-16T14:38:01.003Z,10.57
2023-04-16T14:40:28.284Z,10.53
2023-04-16T14:42:55.111Z,11.27
2023-04-16T14:45:22.488Z,11.67
2023-04-16T14:47:50.109Z,11.60
2023-04-16T14:50:17.159Z,10.83
2023-04-16T14:52:43.903Z,11.03
2023-04-16T14:55:13.564Z,12.37
2023-04-16T14:57:40.938Z,10.63
2023-04-16T15:00:09.746Z,10.90
2023-04-16T15:02:37.596Z,9.53
2023-04-16T15:05:07.089Z,9.33
2023-04-16T15:07:33.739Z,9.47
2023-04-16T15:10:00.369Z,10.83
2023-04-16T15:12:27.000Z,11.00
2023-04-16T15:14:53.681Z,10.03
2023-04-16T15:17:20.793Z,10.33
2023-04-16T15:19:48.185Z,12.17
2023-04-16T15:22:14.903Z,11.17
2023-04-16T15:24:41.555Z,11.10
2023-04-16T15:27:10.418Z,11.87
2023-04-16T15:29:38.321Z,11.13
2023-04-16T15:32:06.712Z,11.63
2023-04-16T15:34:33.473Z,12.33
2023-04-16T15:37:03.370Z,10.77
2023-04-16T15:39:31.232Z,10.40
2023-04-16T15:42:01.181Z,10.70
2023-04-16T15:44:30.819Z,10.70
2023-04-16T15:46:57.498Z,11.10
2023-04-16T15:49:24.378Z,10.77
2023-04-16T15:51:51.482Z,10.57
2023-04-16T15:54:19.399Z,11.70
2023-04-16T15:56:46.273Z,11.13
2023-04-16T15:59:13.330Z,11.43
2023-04-16T16:01:40.190Z,10.93
2023-04-16T16:04:07.915Z,11.60
2023-04-16T16:06:35.052Z,12.17
2023-04-16T16:09:01.908Z,10.97
2023-04-16T16:11:29.198Z,11.63
2023-04-16T16:13:55.816Z,12.13
2023-04-16T16:16:22.429Z,11.77
2023-04-16T16:18:49.238Z,11.67
2023-04-16T16:21:15.962Z,13.43
2023-04-16T16:23:42.568Z,12.93
2023-04-16T16:26:09.191Z,12.90
2023-04-16T16:28:37.358Z,12.90
2023-04-16T16:31:04.059Z,11.40
2023-04-16T16:33:30.983Z,11.20
2023-04-16T16:35:57.737Z,11.43
2023-04-16T16:38:24.355Z,11.10
2023-04-16T16:40:50.983Z,10.50
2023-04-16T16:43:17.709Z,11.63
2023-04-16T16:45:45.827Z,12.13
2023-04-16T16:48:12.484Z,9.90
2023-04-16T16:50:39.130Z,11.37
2023-04-16T16:53:05.977Z,10.37
2023-04-16T16:55:32.643Z,10.20
2023-04-16T16:57:59.325Z,10.20
2023-04-16T17:00:26.197Z,10.97
2023-04-16T17:02:53.660Z,10.27
2023-04-16T17:05:20.586Z,10.37
2023-04-16T17:07:47.237Z,10.67
2023-04-16T17:10:19.313Z,11.80
2023-04-16T17:12:47.328Z,10.90
2023-04-16T17:15:14.086Z,12.07
2023-04-16T17:17:40.783Z,10.83
2023-04-16T17:20:10.026Z,11.87
2023-04-16T17:22:38.157Z,11.00
2023-04-16T17:25:06.841Z,12.30
2023-04-16T17:27:33.748Z,11.53
2023-04-16T17:30:01.062Z,13.07
2023-04-16T17:32:28.035Z,13.17
2023-04-16T17:34:55.847Z,12.03
2023-04-16T17:37:23.274Z,11.53
2023-04-16T17:39:50.366Z,11.37
2023-04-16T17:42:17.093Z,11.40
2023-04-16T17:44:43.799Z,12.03
2023-04-16T17:47:10.528Z,11.70
2023-04-16T17:49:37.268Z,12.40
2023-04-16T17:52:04.145Z,12.20
2023-04-16T17:54:31.417Z,12.17
2023-04-16T17:56:59.055Z,11.47
2023-04-16T17:59:26.641Z,12.20
2023-04-16T18:01:53.967Z,11.93
2023-04-16T18:04:20.906Z,11.27
2023-04-16T18:06:47.766Z,11.03
2023-04-16T18:09:14.876Z,11.03
2023-04-16T18:11:42.353Z,11.40
2023-04-16T18:14:10.938Z,11.90
2023-04-16T18:16:38.690Z,11.47
2023-04-16T18:19:05.766Z,13.13
2023-04-16T18:21:33.503Z,12.23
2023-04-16T18:24:02.729Z,12.27
2023-04-16T18:26:30.068Z,12.03
2023-04-16T18:28:57.694Z,12.40
2023-04-16T18:31:24.717Z,11.90
2023-04-16T18:33:56.397Z,13.00
2023-04-16T18:36:26.106Z,13.07
2023-04-16T18:39:01.644Z,10.93
2023-04-16T18:41:30.104Z,12.23
2023-04-16T18:43:58.178Z,12.67
2023-04-16T18:46:25.966Z,12.97
2023-04-16T18:48:52.752Z,12.57
2023-04-16T18:51:19.835Z,12.37
2023-04-16T18:53:47.162Z,12.70
2023-04-16T18:56:14.447Z,11.90
2023-04-16T18:58:42.624Z,12.77
2023-04-16T19:01:12.419Z,12.30
2023-04-16T19:03:39.950Z,12.13
2023-04-16T19:06:07.097Z,11.30
2023-04-16T19:08:34.389Z,11.97
2023-04-16T19:11:02.010Z,12.07
2023-04-16T19:13:29.871Z,11.97
2023-04-16T19:15:58.597Z,11.83
2023-04-16T19:18:26.629Z,13.23
2023-04-16T19:20:59.159Z,12.57
2023-04-16T19:23:26.665Z,12.83
2023-04-16T19:25:56.625Z,13.20
2023-04-16T19:28:23.840Z,12.60
2023-04-16T19:30:51.080Z,11.83
2023-04-16T19:33:19.567Z,12.07
2023-04-16T19:35:47.832Z,11.87
2023-04-16T19:38:15.102Z,13.50
2023-04-16T19:40:44.835Z,13.10
2023-04-16T19:43:12.414Z,11.87
2023-04-16T19:45:43.629Z,14.03
2023-04-16T19:48:11.100Z,13.53
2023-04-16T19:50:40.056Z,14.90
2023-04-16T19:53:08.331Z,14.27
2023-04-16T19:55:35.860Z,14.30
2023-04-16T19:58:05.817Z,13.80
2023-04-16T20:00:33.406Z,13.77
2023-04-16T20:03:00.565Z,14.33
2023-04-16T20:05:27.883Z,14.13
2023-04-16T20:07:55.518Z,12.80
2023-04-16T20:10:23.916Z,14.03
2023-04-16T20:12:51.177Z,13.43
2023-04-16T20:15:18.546Z,14.57
2023-04-16T20:17:45.679Z,15.17
2023-04-16T20:20:15.270Z,14.23
2023-04-16T20:22:42.996Z,14.87
2023-04-16T20:25:09.962Z,14.50
2023-04-16T20:27:38.060Z,13.63
2023-04-16T20:30:06.441Z,15.10
2023-04-16T20:32:34.234Z,14.10
2023-04-16T20:35:01.817Z,13.30
2023-04-16T20:37:29.538Z,13.37
2023-04-16T20:40:00.183Z,13.33
2023-04-16T20:42:31.510Z,13.80
2023-04-16T20:45:01.103Z,13.43
2023-04-16T20:47:28.285Z,13.70
2023-04-16T20:49:55.657Z,13.57
2023-04-16T20:52:23.053Z,13.73
2023-04-16T20:54:52.808Z,12.40
2023-04-16T20:57:21.034Z,12.23
2023-04-16T20:59:49.358Z,13.57
2023-04-16T21:02:17.235Z,12.50
2023-04-16T21:04:44.706Z,13.10
2023-04-16T21:07:12.011Z,12.53
2023-04-16T21:09:38.720Z,12.90
2023-04-16T21:12:05.854Z,12.40
2023-04-16T21:14:32.629Z,13.10
2023-04-16T21:16:59.302Z,13.13
2023-04-16T21:19:29.344Z,12.33
2023-04-16T21:21:56.099Z,12.87
2023-04-16T21:24:23.328Z,13.73
2023-04-16T21:26:50.044Z,13.10
2023-04-16T21:29:16.685Z,12.53
2023-04-16T21:31:43.420Z,12.80
2023-04-16T21:34:10.131Z,12.63
2023-04-16T21:36:37.410Z,13.40
2023-04-16T21:39:04.647Z,13.47
2023-04-16T21:41:32.619Z,13.40
2023-04-16T21:43:59.390Z,13.03
2023-04-16T21:46:26.022Z,14.63
2023-04-16T21:48:53.204Z,14.93
2023-04-16T21:51:28.090Z,14.30
2023-04-16T21:53:56.269Z,15.30
2023-04-16T21:56:23.886Z,14.90
2023-04-16T21:58:51.145Z,16.10
2023-04-16T22:01:18.827Z,14.23
2023-04-16T22:03:50.071Z,14.40
2023-04-16T22:06:17.897Z,16.20
2023-04-16T22:08:45.376Z,14.60
2023-04-16T22:11:13.718Z,14.70
2023-04-16T22:13:41.790Z,14.73
2023-04-16T22:16:10.130Z,14.97
2023-04-16T22:18:40.647Z,15.27
2023-04-16T22:21:07.843Z,15.10
2023-04-16T22:23:35.341Z,15.10
2023-04-16T22:26:03.565Z,15.17
2023-04-16T22:28:31.337Z,15.10
2023-04-16T22:30:59.433Z,14.83
2023-04-16T22:33:29.929Z,14.93
2023-04-16T22:35:59.568Z,15.30
2023-04-16T22:38:27.125Z,14.83
2023-04-16T22:40:54.865Z,15.57
2023-04-16T22:43:24.531Z,15.17
2023-04-16T22:46:05.091Z,15.33
2023-04-16T22:48:33.241Z,15.07
2023-04-16T22:51:00.504Z,14.53
2023-04-16T22:53:29.111Z,14.83
2023-04-16T22:55:56.291Z,14.83
2023-04-16T22:58:23.437Z,15.60
2023-04-16T23:00:51.842Z,15.70
2023-04-16T23:03:20.101Z,15.13
2023-04-16T23:05:47.246Z,15.43
2023-04-16T23:08:14.508Z,14.77
2023-04-16T23:10:41.629Z,15.40
2023-04-16T23:13:08.895Z,13.60
2023-04-16T23:15:35.955Z,14.87
2023-04-16T23:18:03.397Z,15.27
2023-04-16T23:20:30.741Z,14.50
2023-04-16T23:22:57.368Z,14.47
2023-04-16T23:25:24.764Z,14.23
2023-04-16T23:27:51.386Z,13.77
2023-04-16T23:30:18.540Z,14.37
2023-04-16T23:32:45.284Z,14.10
2023-04-16T23:35:19.705Z,15.27
2023-04-16T23:37:47.118Z,14.90
2023-04-16T23:40:13.876Z,14.70
2023-04-16T23:42:40.491Z,14.03
2023-04-16T23:45:08.252Z,14.73
2023-04-16T23:47:35.067Z,14.80
2023-04-16T23:50:01.723Z,15.43
2023-04-16T23:52:28.351Z,15.03
2023-04-16T23:54:55.601Z,14.90
2023-04-16T23:57:22.263Z,16.17
2023-04-16T23:59:48.887Z,15.20
